KRDR/RDR METAR and TAF weather

Enter ICAO airport designator
Station Type Date Time Source
KRDR METAR 2022/07/03 13:56 UTC NOAA

KRDR 031356Z AUTO 08008KT 10SM SCT120 20/13 A2998 RMK AO2 SLP155 T02010126 FZRANO $


Station Type Date Time Source
KRDR Decoded METAR 2022/07/03 13:56 UTC NOAA

Grand Forks Air Force Base, ND, United States (KRDR) 47-58N 097-24W 278M
Jul 03, 2022 - 09:56 AM EDT / 2022.07.03 1356 UTC
Wind: from the E (080 degrees) at 9 MPH (8 KT):0
Visibility: 10 mile(s):0
Sky conditions: partly cloudy
Temperature: 68.2 F (20.1 C)
Dew Point: 54.7 F (12.6 C)
Relative Humidity: 61%
Pressure (altimeter): 29.98 in. Hg (1015 hPa)
ob: KRDR 031356Z AUTO 08008KT 10SM SCT120 20/13 A2998 RMK AO2 SLP155 T02010126 FZRANO
cycle: 14

Station Type Date Time Source
KRDR TAF 2022/07/01 04:41 UTC NOAA

TAF
AMD KRDR 010432Z 0104/0208 VRB06KT 9999 FEW065 QNH2994INS
BECMG 0113/0114 29010G20KT 9999 SCT080 510003 QNH2994INS
BECMG 0123/0124 34010G15KT 9999 SCT080 510003 QNH2994INS WND VRB06KT AFT 0202 TX26/0121Z TN14/0111Z LAST NO
AMDS AFT 0105 NEXT 0511

Example: see airport list